sensor_id;sensor_type;location;lat;lon;timestamp;pressure;altitude;pressure_sealevel;temperature;humidity
16120;BME280;12670;53.502;10.252;2023-04-23T00:00:17;100188.19;;;17.11;100.00
16120;BME280;12670;53.502;10.252;2023-04-23T00:03:21;100179.56;;;17.07;100.00
16120;BME280;12670;53.502;10.252;2023-04-23T00:06:26;100180.28;;;17.09;100.00
16120;BME280;12670;53.502;10.252;2023-04-23T00:09:32;100176.63;;;17.10;100.00
16120;BME280;12670;53.502;10.252;2023-04-23T00:12:37;100183.94;;;17.08;100.00
16120;BME280;12670;53.502;10.252;2023-04-23T00:15:40;100180.28;;;17.09;99.76
16120;BME280;12670;53.502;10.252;2023-04-23T00:18:43;100177.72;;;17.08;100.00
16120;BME280;12670;53.502;10.252;2023-04-23T00:21:46;100162.97;;;17.02;100.00
16120;BME280;12670;53.502;10.252;2023-04-23T00:24:50;100161.88;;;17.04;100.00
16120;BME280;12670;53.502;10.252;2023-04-23T00:27:52;100175.41;;;17.03;100.00
16120;BME280;12670;53.502;10.252;2023-04-23T00:30:55;100175.25;;;16.93;100.00
16120;BME280;12670;53.502;10.252;2023-04-23T00:33:58;100166.84;;;16.98;100.00
16120;BME280;12670;53.502;10.252;2023-04-23T00:37:00;100172.00;;;17.01;100.00
16120;BME280;12670;53.502;10.252;2023-04-23T00:40:08;100175.72;;;16.87;100.00
16120;BME280;12670;53.502;10.252;2023-04-23T00:43:12;100176.00;;;16.95;100.00
16120;BME280;12670;53.502;10.252;2023-04-23T00:46:16;100178.53;;;16.86;100.00
16120;BME280;12670;53.502;10.252;2023-04-23T00:49:19;100184.41;;;16.67;100.00
16120;BME280;12670;53.502;10.252;2023-04-23T00:52:22;100181.41;;;16.71;100.00
16120;BME280;12670;53.502;10.252;2023-04-23T00:55:29;100168.69;;;16.62;100.00
16120;BME280;12670;53.502;10.252;2023-04-23T00:58:32;100172.53;;;16.58;100.00
16120;BME280;12670;53.502;10.252;2023-04-23T01:01:35;100172.91;;;16.53;100.00
16120;BME280;12670;53.502;10.252;2023-04-23T01:04:39;100173.88;;;16.52;100.00
16120;BME280;12670;53.502;10.252;2023-04-23T01:07:45;100170.25;;;16.53;100.00
16120;BME280;12670;53.502;10.252;2023-04-23T01:10:51;100164.41;;;16.36;100.00
16120;BME280;12670;53.502;10.252;2023-04-23T01:13:54;100167.34;;;16.33;100.00
16120;BME280;12670;53.502;10.252;2023-04-23T01:16:57;100174.41;;;16.34;100.00
16120;BME280;12670;53.502;10.252;2023-04-23T01:20:00;100168.31;;;16.32;100.00
16120;BME280;12670;53.502;10.252;2023-04-23T01:23:04;100172.81;;;16.31;100.00
16120;BME280;12670;53.502;10.252;2023-04-23T01:26:07;100173.53;;;16.09;100.00
16120;BME280;12670;53.502;10.252;2023-04-23T01:29:12;100173.53;;;16.09;100.00
16120;BME280;12670;53.502;10.252;2023-04-23T01:32:16;100172.00;;;16.18;100.00
16120;BME280;12670;53.502;10.252;2023-04-23T01:35:19;100174.03;;;15.90;100.00
16120;BME280;12670;53.502;10.252;2023-04-23T01:38:24;100164.19;;;15.91;100.00
16120;BME280;12670;53.502;10.252;2023-04-23T01:41:30;100171.69;;;15.86;100.00
16120;BME280;12670;53.502;10.252;2023-04-23T01:44:33;100168.53;;;15.55;100.00
16120;BME280;12670;53.502;10.252;2023-04-23T01:47:35;100162.97;;;15.58;100.00
16120;BME280;12670;53.502;10.252;2023-04-23T01:50:38;100170.25;;;15.43;100.00
16120;BME280;12670;53.502;10.252;2023-04-23T01:53:43;100170.78;;;15.61;100.00
16120;BME280;12670;53.502;10.252;2023-04-23T01:56:45;100170.88;;;15.72;100.00
16120;BME280;12670;53.502;10.252;2023-04-23T01:59:48;100170.25;;;15.69;100.00
16120;BME280;12670;53.502;10.252;2023-04-23T02:02:51;100166.50;;;15.71;100.00
16120;BME280;12670;53.502;10.252;2023-04-23T02:05:54;100172.19;;;15.54;100.00
16120;BME280;12670;53.502;10.252;2023-04-23T02:08:58;100165.22;;;15.64;100.00
16120;BME280;12670;53.502;10.252;2023-04-23T02:12:01;100166.84;;;15.54;100.00
16120;BME280;12670;53.502;10.252;2023-04-23T02:15:06;100161.03;;;15.60;100.00
16120;BME280;12670;53.502;10.252;2023-04-23T02:18:09;100168.44;;;15.44;100.00
16120;BME280;12670;53.502;10.252;2023-04-23T02:21:13;100167.69;;;15.55;100.00
16120;BME280;12670;53.502;10.252;2023-04-23T02:24:17;100168.66;;;15.66;100.00
16120;BME280;12670;53.502;10.252;2023-04-23T02:27:20;100163.94;;;15.44;100.00
16120;BME280;12670;53.502;10.252;2023-04-23T02:30:23;100164.72;;;15.34;100.00
16120;BME280;12670;53.502;10.252;2023-04-23T02:33:25;100163.22;;;15.42;100.00
16120;BME280;12670;53.502;10.252;2023-04-23T02:36:28;100170.25;;;15.43;100.00
16120;BME280;12670;53.502;10.252;2023-04-23T02:39:34;100188.13;;;15.43;100.00
16120;BME280;12670;53.502;10.252;2023-04-23T02:42:36;100211.41;;;14.90;100.00
16120;BME280;12670;53.502;10.252;2023-04-23T02:45:41;100209.28;;;14.55;100.00
16120;BME280;12670;53.502;10.252;2023-04-23T02:48:45;100207.31;;;14.45;100.00
16120;BME280;12670;53.502;10.252;2023-04-23T02:51:47;100202.78;;;14.32;100.00
16120;BME280;12670;53.502;10.252;2023-04-23T02:54:51;100203.22;;;14.39;100.00
16120;BME280;12670;53.502;10.252;2023-04-23T02:57:54;100210.69;;;14.34;100.00
16120;BME280;12670;53.502;10.252;2023-04-23T03:00:57;100215.81;;;14.37;100.00
16120;BME280;12670;53.502;10.252;2023-04-23T03:04:00;100214.44;;;14.17;100.00
16120;BME280;12670;53.502;10.252;2023-04-23T03:07:04;100214.78;;;13.98;100.00
16120;BME280;12670;53.502;10.252;2023-04-23T03:10:08;100213.81;;;13.99;100.00
16120;BME280;12670;53.502;10.252;2023-04-23T03:13:11;100228.50;;;13.92;100.00
16120;BME280;12670;53.502;10.252;2023-04-23T03:16:13;100222.72;;;13.57;100.00
16120;BME280;12670;53.502;10.252;2023-04-23T03:19:17;100226.63;;;13.80;100.00
16120;BME280;12670;53.502;10.252;2023-04-23T03:22:19;100230.44;;;13.90;100.00
16120;BME280;12670;53.502;10.252;2023-04-23T03:25:23;100233.88;;;13.78;100.00
16120;BME280;12670;53.502;10.252;2023-04-23T03:28:26;100235.19;;;13.71;100.00
16120;BME280;12670;53.502;10.252;2023-04-23T03:31:28;100237.97;;;13.55;100.00
16120;BME280;12670;53.502;10.252;2023-04-23T03:34:31;100236.72;;;13.32;100.00
16120;BME280;12670;53.502;10.252;2023-04-23T03:37:34;100243.56;;;13.36;100.00
16120;BME280;12670;53.502;10.252;2023-04-23T03:40:38;100251.28;;;12.96;100.00
16120;BME280;12670;53.502;10.252;2023-04-23T03:43:40;100241.16;;;12.87;100.00
16120;BME280;12670;53.502;10.252;2023-04-23T03:46:43;100254.16;;;13.07;100.00
16120;BME280;12670;53.502;10.252;2023-04-23T03:49:45;100248.09;;;13.20;100.00
16120;BME280;12670;53.502;10.252;2023-04-23T03:52:48;100246.22;;;13.22;100.00
16120;BME280;12670;53.502;10.252;2023-04-23T03:55:52;100246.91;;;13.25;100.00
16120;BME280;12670;53.502;10.252;2023-04-23T03:58:55;100252.63;;;13.03;100.00
16120;BME280;12670;53.502;10.252;2023-04-23T04:01:57;100254.38;;;12.89;100.00
16120;BME280;12670;53.502;10.252;2023-04-23T04:05:00;100249.16;;;13.01;100.00
16120;BME280;12670;53.502;10.252;2023-04-23T04:08:03;100257.50;;;12.81;100.00
16120;BME280;12670;53.502;10.252;2023-04-23T04:11:07;100250.81;;;12.74;100.00
16120;BME280;12670;53.502;10.252;2023-04-23T04:14:10;100260.31;;;12.78;100.00
16120;BME280;12670;53.502;10.252;2023-04-23T04:17:13;100260.91;;;12.83;100.00
16120;BME280;12670;53.502;10.252;2023-04-23T04:20:16;100267.09;;;12.84;100.00
16120;BME280;12670;53.502;10.252;2023-04-23T04:23:19;100264.88;;;12.76;100.00
16120;BME280;12670;53.502;10.252;2023-04-23T04:26:23;100275.91;;;12.70;100.00
16120;BME280;12670;53.502;10.252;2023-04-23T04:29:26;100269.91;;;12.96;100.00
16120;BME280;12670;53.502;10.252;2023-04-23T04:32:28;100276.88;;;12.83;100.00
16120;BME280;12670;53.502;10.252;2023-04-23T04:35:31;100279.31;;;12.72;100.00
16120;BME280;12670;53.502;10.252;2023-04-23T04:38:34;100285.97;;;12.49;100.00
16120;BME280;12670;53.502;10.252;2023-04-23T04:41:39;100292.41;;;12.29;100.00
16120;BME280;12670;53.502;10.252;2023-04-23T04:44:43;100293.78;;;12.05;100.00
16120;BME280;12670;53.502;10.252;2023-04-23T04:47:45;100281.75;;;12.13;100.00
16120;BME280;12670;53.502;10.252;2023-04-23T04:50:48;100291.97;;;12.52;100.00
16120;BME280;12670;53.502;10.252;2023-04-23T04:53:50;100293.50;;;12.72;100.00
16120;BME280;12670;53.502;10.252;2023-04-23T04:56:55;100297.69;;;12.76;100.00
16120;BME280;12670;53.502;10.252;2023-04-23T05:00:01;100296.44;;;12.68;100.00
16120;BME280;12670;53.502;10.252;2023-04-23T05:03:05;100294.00;;;12.79;100.00
16120;BME280;12670;53.502;10.252;2023-04-23T05:06:08;100301.50;;;12.72;100.00
16120;BME280;12670;53.502;10.252;2023-04-23T05:09:11;100308.03;;;12.67;100.00
16120;BME280;12670;53.502;10.252;2023-04-23T05:12:15;100309.53;;;12.71;100.00
16120;BME280;12670;53.502;10.252;2023-04-23T05:15:18;100318.31;;;12.73;100.00
16120;BME280;12670;53.502;10.252;2023-04-23T05:18:20;100323.53;;;12.90;100.00
16120;BME280;12670;53.502;10.252;2023-04-23T05:21:23;100318.97;;;12.92;100.00
16120;BME280;12670;53.502;10.252;2023-04-23T05:24:27;100332.19;;;12.78;100.00
16120;BME280;12670;53.502;10.252;2023-04-23T05:27:31;100329.88;;;12.88;100.00
16120;BME280;12670;53.502;10.252;2023-04-23T05:30:34;100326.00;;;12.93;100.00
16120;BME280;12670;53.502;10.252;2023-04-23T05:33:37;100336.41;;;12.82;100.00
16120;BME280;12670;53.502;10.252;2023-04-23T05:36:50;100337.34;;;12.81;100.00
16120;BME280;12670;53.502;10.252;2023-04-23T05:39:53;100345.09;;;12.86;100.00
16120;BME280;12670;53.502;10.252;2023-04-23T05:42:58;100342.31;;;12.87;100.00
16120;BME280;12670;53.502;10.252;2023-04-23T05:46:01;100354.09;;;12.83;100.00
16120;BME280;12670;53.502;10.252;2023-04-23T05:49:04;100355.59;;;12.73;100.00
16120;BME280;12670;53.502;10.252;2023-04-23T05:52:07;100353.31;;;12.81;99.44
16120;BME280;12670;53.502;10.252;2023-04-23T05:55:10;100350.47;;;13.00;98.78
16120;BME280;12670;53.502;10.252;2023-04-23T05:58:14;100353.31;;;12.97;99.27
16120;BME280;12670;53.502;10.252;2023-04-23T06:01:17;100363.72;;;12.70;99.12
16120;BME280;12670;53.502;10.252;2023-04-23T06:04:20;100357.19;;;12.91;99.61
16120;BME280;12670;53.502;10.252;2023-04-23T06:07:23;100361.00;;;13.01;98.02
16120;BME280;12670;53.502;10.252;2023-04-23T06:10:25;100353.47;;;13.10;98.92
16120;BME280;12670;53.502;10.252;2023-04-23T06:13:30;100360.38;;;12.82;97.81
16120;BME280;12670;53.502;10.252;2023-04-23T06:16:32;100355.38;;;12.76;95.06
16120;BME280;12670;53.502;10.252;2023-04-23T06:19:35;100352.47;;;12.65;95.14
16120;BME280;12670;53.502;10.252;2023-04-23T06:22:38;100346.81;;;12.71;96.24
16120;BME280;12670;53.502;10.252;2023-04-23T06:25:40;100359.34;;;12.69;96.28
16120;BME280;12670;53.502;10.252;2023-04-23T06:28:45;100358.00;;;12.62;95.89
16120;BME280;12670;53.502;10.252;2023-04-23T06:31:47;100365.03;;;12.63;94.87
16120;BME280;12670;53.502;10.252;2023-04-23T06:34:50;100369.31;;;12.65;94.20
16120;BME280;12670;53.502;10.252;2023-04-23T06:38:02;100365.38;;;12.72;95.49
16120;BME280;12670;53.502;10.252;2023-04-23T06:41:05;100371.34;;;12.92;96.85
16120;BME280;12670;53.502;10.252;2023-04-23T06:44:09;100368.09;;;12.71;95.58
16120;BME280;12670;53.502;10.252;2023-04-23T06:47:12;100368.97;;;12.56;94.32
16120;BME280;12670;53.502;10.252;2023-04-23T06:50:15;100382.34;;;12.54;94.60
16120;BME280;12670;53.502;10.252;2023-04-23T06:53:18;100381.34;;;12.57;95.01
16120;BME280;12670;53.502;10.252;2023-04-23T06:56:20;100383.53;;;12.48;95.80
16120;BME280;12670;53.502;10.252;2023-04-23T06:59:24;100381.25;;;12.74;95.74
16120;BME280;12670;53.502;10.252;2023-04-23T07:02:27;100376.19;;;12.85;95.36
16120;BME280;12670;53.502;10.252;2023-04-23T07:05:30;100378.75;;;12.71;93.83
16120;BME280;12670;53.502;10.252;2023-04-23T07:08:33;100380.66;;;12.69;93.81
16120;BME280;12670;53.502;10.252;2023-04-23T07:11:36;100371.28;;;12.62;93.16
16120;BME280;12670;53.502;10.252;2023-04-23T07:14:40;100377.03;;;12.86;92.26
16120;BME280;12670;53.502;10.252;2023-04-23T07:17:42;100366.91;;;12.76;92.08
16120;BME280;12670;53.502;10.252;2023-04-23T07:20:45;100376.34;;;12.82;92.88
16120;BME280;12670;53.502;10.252;2023-04-23T07:23:48;100374.97;;;12.75;91.22
16120;BME280;12670;53.502;10.252;2023-04-23T07:26:51;100373.56;;;12.99;94.02
16120;BME280;12670;53.502;10.252;2023-04-23T07:29:55;100374.78;;;12.94;93.59
16120;BME280;12670;53.502;10.252;2023-04-23T07:32:57;100371.41;;;13.06;91.93
16120;BME280;12670;53.502;10.252;2023-04-23T07:36:00;100373.06;;;12.77;90.83
16120;BME280;12670;53.502;10.252;2023-04-23T07:39:03;100367.41;;;12.83;92.34
16120;BME280;12670;53.502;10.252;2023-04-23T07:42:06;100370.41;;;12.77;92.45
16120;BME280;12670;53.502;10.252;2023-04-23T07:45:10;100362.06;;;12.83;92.02
16120;BME280;12670;53.502;10.252;2023-04-23T07:48:13;100360.59;;;12.93;93.42
16120;BME280;12670;53.502;10.252;2023-04-23T07:51:16;100361.53;;;13.08;92.26
16120;BME280;12670;53.502;10.252;2023-04-23T07:54:19;100358.44;;;13.16;92.20
16120;BME280;12670;53.502;10.252;2023-04-23T07:57:23;100362.16;;;13.43;91.54
16120;BME280;12670;53.502;10.252;2023-04-23T08:00:27;100353.00;;;13.47;90.13
16120;BME280;12670;53.502;10.252;2023-04-23T08:03:29;100361.31;;;13.43;89.91
16120;BME280;12670;53.502;10.252;2023-04-23T08:06:32;100363.88;;;13.44;88.94
16120;BME280;12670;53.502;10.252;2023-04-23T08:09:35;100365.91;;;13.55;82.69
16120;BME280;12670;53.502;10.252;2023-04-23T08:12:38;100356.09;;;13.55;82.89
16120;BME280;12670;53.502;10.252;2023-04-23T08:15:42;100358.97;;;13.81;81.32
16120;BME280;12670;53.502;10.252;2023-04-23T08:18:45;100353.16;;;14.17;80.61
16120;BME280;12670;53.502;10.252;2023-04-23T08:22:04;100355.56;;;14.22;79.67
16120;BME280;12670;53.502;10.252;2023-04-23T08:25:08;100363.56;;;13.79;79.22
16120;BME280;12670;53.502;10.252;2023-04-23T08:28:11;100350.41;;;14.04;79.06
16120;BME280;12670;53.502;10.252;2023-04-23T08:31:15;100345.94;;;13.91;79.32
16120;BME280;12670;53.502;10.252;2023-04-23T08:34:27;100344.13;;;14.20;82.47
16120;BME280;12670;53.502;10.252;2023-04-23T08:37:30;100340.69;;;14.32;79.10
16120;BME280;12670;53.502;10.252;2023-04-23T08:40:35;100354.28;;;14.41;80.58
16120;BME280;12670;53.502;10.252;2023-04-23T08:43:45;100348.59;;;14.33;77.07
16120;BME280;12670;53.502;10.252;2023-04-23T08:46:52;100345.50;;;14.68;79.17
16120;BME280;12670;53.502;10.252;2023-04-23T08:49:57;100349.88;;;14.69;76.73
16120;BME280;12670;53.502;10.252;2023-04-23T08:53:00;100345.16;;;14.60;76.22
16120;BME280;12670;53.502;10.252;2023-04-23T08:56:07;100346.09;;;14.30;74.81
16120;BME280;12670;53.502;10.252;2023-04-23T08:59:09;100342.75;;;14.55;79.43
16120;BME280;12670;53.502;10.252;2023-04-23T09:02:15;100357.59;;;14.74;74.67
16120;BME280;12670;53.502;10.252;2023-04-23T09:05:18;100360.72;;;14.80;74.88
16120;BME280;12670;53.502;10.252;2023-04-23T09:08:21;100357.38;;;15.43;73.83
16120;BME280;12670;53.502;10.252;2023-04-23T09:11:25;100353.91;;;15.29;71.89
16120;BME280;12670;53.502;10.252;2023-04-23T09:14:28;100349.97;;;15.34;69.54
16120;BME280;12670;53.502;10.252;2023-04-23T09:17:33;100345.22;;;15.65;66.88
16120;BME280;12670;53.502;10.252;2023-04-23T09:20:39;100346.13;;;15.78;66.69
16120;BME280;12670;53.502;10.252;2023-04-23T09:23:42;100348.97;;;15.88;67.83
16120;BME280;12670;53.502;10.252;2023-04-23T09:26:45;100338.50;;;16.47;67.16
16120;BME280;12670;53.502;10.252;2023-04-23T09:29:48;100328.50;;;16.74;70.01
16120;BME280;12670;53.502;10.252;2023-04-23T09:32:54;100325.38;;;16.68;59.87
16120;BME280;12670;53.502;10.252;2023-04-23T09:35:57;100322.59;;;16.69;60.12
16120;BME280;12670;53.502;10.252;2023-04-23T09:39:00;100318.44;;;16.65;60.73
16120;BME280;12670;53.502;10.252;2023-04-23T09:42:03;100310.03;;;17.07;61.65
16120;BME280;12670;53.502;10.252;2023-04-23T09:45:11;100311.00;;;17.63;59.96
16120;BME280;12670;53.502;10.252;2023-04-23T09:48:15;100310.31;;;18.39;59.04
16120;BME280;12670;53.502;10.252;2023-04-23T09:51:18;100310.97;;;17.05;58.18
16120;BME280;12670;53.502;10.252;2023-04-23T09:54:21;100309.31;;;17.62;58.70
16120;BME280;12670;53.502;10.252;2023-04-23T09:57:26;100309.38;;;18.18;58.96
16120;BME280;12670;53.502;10.252;2023-04-23T10:00:32;100301.09;;;17.30;55.62
16120;BME280;12670;53.502;10.252;2023-04-23T10:03:41;100304.91;;;17.61;57.16
16120;BME280;12670;53.502;10.252;2023-04-23T10:06:44;100301.59;;;18.58;55.88
16120;BME280;12670;53.502;10.252;2023-04-23T10:10:08;100313.72;;;19.49;54.32
16120;BME280;12670;53.502;10.252;2023-04-23T10:13:10;100306.94;;;18.81;54.23
16120;BME280;12670;53.502;10.252;2023-04-23T10:16:13;100302.66;;;18.89;51.06
16120;BME280;12670;53.502;10.252;2023-04-23T10:19:28;100304.09;;;19.47;55.10
16120;BME280;12670;53.502;10.252;2023-04-23T10:22:32;100297.38;;;18.22;53.97
16120;BME280;12670;53.502;10.252;2023-04-23T10:25:37;100298.94;;;19.02;53.98
16120;BME280;12670;53.502;10.252;2023-04-23T10:28:42;100301.69;;;19.32;50.31
16120;BME280;12670;53.502;10.252;2023-04-23T10:31:48;100300.47;;;18.83;49.50
16120;BME280;12670;53.502;10.252;2023-04-23T10:34:53;100308.31;;;19.28;51.84
16120;BME280;12670;53.502;10.252;2023-04-23T10:37:56;100313.38;;;19.42;50.30
16120;BME280;12670;53.502;10.252;2023-04-23T10:41:00;100305.84;;;19.78;48.29
16120;BME280;12670;53.502;10.252;2023-04-23T10:44:04;100296.81;;;20.79;51.61
16120;BME280;12670;53.502;10.252;2023-04-23T10:47:11;100300.53;;;20.78;46.56
16120;BME280;12670;53.502;10.252;2023-04-23T10:50:21;100300.78;;;20.75;48.89
16120;BME280;12670;53.502;10.252;2023-04-23T10:53:24;100306.22;;;20.44;46.61
16120;BME280;12670;53.502;10.252;2023-04-23T10:56:27;100288.97;;;21.63;49.72
16120;BME280;12670;53.502;10.252;2023-04-23T10:59:30;100295.34;;;22.19;43.70
16120;BME280;12670;53.502;10.252;2023-04-23T11:02:42;100289.47;;;22.96;46.23
16120;BME280;12670;53.502;10.252;2023-04-23T11:05:47;100285.50;;;22.45;44.50
16120;BME280;12670;53.502;10.252;2023-04-23T11:08:50;100290.09;;;22.90;45.48
16120;BME280;12670;53.502;10.252;2023-04-23T11:11:54;100284.50;;;22.28;42.86
16120;BME280;12670;53.502;10.252;2023-04-23T11:14:57;100280.81;;;22.20;44.80
16120;BME280;12670;53.502;10.252;2023-04-23T11:18:00;100291.38;;;23.04;42.30
16120;BME280;12670;53.502;10.252;2023-04-23T11:21:05;100278.88;;;22.12;43.68
16120;BME280;12670;53.502;10.252;2023-04-23T11:24:09;100285.34;;;22.92;44.19
16120;BME280;12670;53.502;10.252;2023-04-23T11:27:13;100280.22;;;22.26;42.27
16120;BME280;12670;53.502;10.252;2023-04-23T11:30:17;100283.84;;;22.80;43.43
16120;BME280;12670;53.502;10.252;2023-04-23T11:33:20;100288.91;;;23.28;42.45
16120;BME280;12670;53.502;10.252;2023-04-23T11:36:26;100294.59;;;23.87;41.86
16120;BME280;12670;53.502;10.252;2023-04-23T11:39:29;100284.66;;;23.70;41.76
16120;BME280;12670;53.502;10.252;2023-04-23T11:42:31;100269.66;;;22.78;41.42
16120;BME280;12670;53.502;10.252;2023-04-23T11:45:34;100258.81;;;24.17;42.05
16120;BME280;12670;53.502;10.252;2023-04-23T11:48:37;100247.22;;;24.41;41.21
16120;BME280;12670;53.502;10.252;2023-04-23T11:51:41;100252.84;;;24.48;39.36
16120;BME280;12670;53.502;10.252;2023-04-23T11:54:45;100252.59;;;25.41;41.02
16120;BME280;12670;53.502;10.252;2023-04-23T11:57:48;100247.41;;;24.40;39.93
16120;BME280;12670;53.502;10.252;2023-04-23T12:00:56;100233.59;;;25.24;38.51
16120;BME280;12670;53.502;10.252;2023-04-23T12:03:59;100242.06;;;25.38;38.61
16120;BME280;12670;53.502;10.252;2023-04-23T12:07:03;100238.19;;;25.24;40.19
16120;BME280;12670;53.502;10.252;2023-04-23T12:10:23;100232.56;;;25.42;37.91
16120;BME280;12670;53.502;10.252;2023-04-23T12:13:27;100238.25;;;25.79;37.90
16120;BME280;12670;53.502;10.252;2023-04-23T12:16:36;100238.66;;;25.52;37.39
16120;BME280;12670;53.502;10.252;2023-04-23T12:19:42;100232.72;;;24.91;37.40
16120;BME280;12670;53.502;10.252;2023-04-23T12:22:47;100235.56;;;25.63;38.69
16120;BME280;12670;53.502;10.252;2023-04-23T12:25:51;100225.72;;;25.62;36.66
16120;BME280;12670;53.502;10.252;2023-04-23T12:28:57;100230.19;;;25.14;36.74
16120;BME280;12670;53.502;10.252;2023-04-23T12:32:01;100227.28;;;25.57;36.92
16120;BME280;12670;53.502;10.252;2023-04-23T12:35:04;100224.66;;;25.79;35.63
16120;BME280;12670;53.502;10.252;2023-04-23T12:38:20;100221.63;;;26.22;36.15
16120;BME280;12670;53.502;10.252;2023-04-23T12:41:24;100220.00;;;25.41;34.54
16120;BME280;12670;53.502;10.252;2023-04-23T12:44:27;100219.16;;;26.04;36.18
16120;BME280;12670;53.502;10.252;2023-04-23T12:47:29;100216.31;;;26.28;38.13
16120;BME280;12670;53.502;10.252;2023-04-23T12:50:32;100207.78;;;26.63;33.97
16120;BME280;12670;53.502;10.252;2023-04-23T12:53:36;100202.44;;;26.15;33.70
16120;BME280;12670;53.502;10.252;2023-04-23T12:56:39;100205.97;;;26.55;34.08
16120;BME280;12670;53.502;10.252;2023-04-23T12:59:42;100202.13;;;25.63;36.19
16120;BME280;12670;53.502;10.252;2023-04-23T13:02:45;100202.69;;;24.52;36.43
16120;BME280;12670;53.502;10.252;2023-04-23T13:05:47;100198.13;;;25.26;36.90
16120;BME280;12670;53.502;10.252;2023-04-23T13:08:51;100202.69;;;25.01;36.79
16120;BME280;12670;53.502;10.252;2023-04-23T13:11:56;100195.41;;;24.61;37.12
16120;BME280;12670;53.502;10.252;2023-04-23T13:15:00;100195.28;;;24.12;39.23
16120;BME280;12670;53.502;10.252;2023-04-23T13:18:03;100190.41;;;24.24;37.96
16120;BME280;12670;53.502;10.252;2023-04-23T13:21:06;100188.47;;;24.75;37.19
16120;BME280;12670;53.502;10.252;2023-04-23T13:24:09;100183.19;;;23.90;37.73
16120;BME280;12670;53.502;10.252;2023-04-23T13:27:12;100172.88;;;23.07;40.41
16120;BME280;12670;53.502;10.252;2023-04-23T13:30:15;100170.38;;;22.17;42.42
16120;BME280;12670;53.502;10.252;2023-04-23T13:33:17;100173.78;;;22.54;41.61
16120;BME280;12670;53.502;10.252;2023-04-23T13:36:21;100173.69;;;22.82;41.39
16120;BME280;12670;53.502;10.252;2023-04-23T13:39:25;100168.53;;;22.88;40.01
16120;BME280;12670;53.502;10.252;2023-04-23T13:42:28;100154.31;;;22.33;39.16
16120;BME280;12670;53.502;10.252;2023-04-23T13:45:30;100152.22;;;22.62;41.14
16120;BME280;12670;53.502;10.252;2023-04-23T13:48:33;100158.94;;;22.58;43.38
16120;BME280;12670;53.502;10.252;2023-04-23T13:51:36;100152.84;;;22.21;43.74
16120;BME280;12670;53.502;10.252;2023-04-23T13:54:39;100141.34;;;21.91;42.27
16120;BME280;12670;53.502;10.252;2023-04-23T13:57:42;100130.53;;;21.91;44.84
16120;BME280;12670;53.502;10.252;2023-04-23T14:00:45;100120.66;;;21.82;43.70
16120;BME280;12670;53.502;10.252;2023-04-23T14:03:47;100120.34;;;21.58;43.57
16120;BME280;12670;53.502;10.252;2023-04-23T14:06:50;100106.75;;;21.49;42.53
16120;BME280;12670;53.502;10.252;2023-04-23T14:09:54;100103.00;;;21.88;44.50
16120;BME280;12670;53.502;10.252;2023-04-23T14:12:57;100103.19;;;22.22;43.44
16120;BME280;12670;53.502;10.252;2023-04-23T14:15:59;100105.88;;;22.75;40.79
16120;BME280;12670;53.502;10.252;2023-04-23T14:19:04;100096.44;;;22.61;39.59
16120;BME280;12670;53.502;10.252;2023-04-23T14:22:07;100092.22;;;22.85;41.01
16120;BME280;12670;53.502;10.252;2023-04-23T14:25:14;100091.22;;;22.86;40.16
16120;BME280;12670;53.502;10.252;2023-04-23T14:28:26;100083.00;;;22.87;39.99
16120;BME280;12670;53.502;10.252;2023-04-23T14:31:29;100089.69;;;22.22;41.66
16120;BME280;12670;53.502;10.252;2023-04-23T14:34:32;100083.75;;;22.18;42.37
16120;BME280;12670;53.502;10.252;2023-04-23T14:37:36;100081.59;;;21.59;39.54
16120;BME280;12670;53.502;10.252;2023-04-23T14:40:40;100088.22;;;21.37;38.70
16120;BME280;12670;53.502;10.252;2023-04-23T14:43:42;100083.97;;;21.34;39.66
16120;BME280;12670;53.502;10.252;2023-04-23T14:46:45;100076.59;;;21.26;40.33
16120;BME280;12670;53.502;10.252;2023-04-23T14:49:50;100072.19;;;21.25;43.03
16120;BME280;12670;53.502;10.252;2023-04-23T14:52:53;100074.53;;;21.11;40.87
16120;BME280;12670;53.502;10.252;2023-04-23T14:55:57;100080.91;;;20.72;40.61
16120;BME280;12670;53.502;10.252;2023-04-23T14:59:00;100091.84;;;20.52;42.68
16120;BME280;12670;53.502;10.252;2023-04-23T15:02:03;100090.09;;;19.92;45.63
16120;BME280;12670;53.502;10.252;2023-04-23T15:05:06;100091.81;;;19.43;48.46
16120;BME280;12670;53.502;10.252;2023-04-23T15:08:10;100092.69;;;18.83;51.85
16120;BME280;12670;53.502;10.252;2023-04-23T15:11:15;100083.78;;;18.82;53.07
16120;BME280;12670;53.502;10.252;2023-04-23T15:14:19;100084.81;;;18.70;54.85
16120;BME280;12670;53.502;10.252;2023-04-23T15:17:22;100082.38;;;18.88;55.04
16120;BME280;12670;53.502;10.252;2023-04-23T15:20:24;100082.09;;;18.91;54.67
16120;BME280;12670;53.502;10.252;2023-04-23T15:23:29;100088.63;;;18.88;54.38
16120;BME280;12670;53.502;10.252;2023-04-23T15:26:33;100088.78;;;18.76;55.30
16120;BME280;12670;53.502;10.252;2023-04-23T15:29:36;100082.63;;;19.06;55.89
16120;BME280;12670;53.502;10.252;2023-04-23T15:32:38;100075.19;;;18.88;55.75
16120;BME280;12670;53.502;10.252;2023-04-23T15:35:41;100073.28;;;18.79;57.05
16120;BME280;12670;53.502;10.252;2023-04-23T15:38:43;100079.78;;;18.77;55.80
16120;BME280;12670;53.502;10.252;2023-04-23T15:41:47;100077.47;;;18.72;56.51